Time;durP1;ratioP1;P1;durP2;ratioP2;P2;SDS_P1;SDS_P2;PMS_P1;PMS_P2;Temp;Humidity;BMP_temperature;BMP_pressure;BME280_temperature;BME280_humidity;BME280_pressure;Samples;Min_cycle;Max_cycle;Signal;HPM_P1;HPM_P2
2022/10/14 00:01:25;;;;;;;19.55;8.93;;;;;;;;;;1723678;83;21052;-67
2022/10/14 00:03:53;;;;;;;17.00;8.70;;;;;;;;;;1729224;83;21092;-67
2022/10/14 00:06:20;;;;;;;16.55;8.78;;;;;;;;;;1728314;83;21060;-67
2022/10/14 00:08:46;;;;;;;17.85;8.40;;;;;;;;;;1723453;83;21532;-67
2022/10/14 00:11:16;;;;;;;16.05;8.28;;;;;;;;;;1723700;83;21044;-67
2022/10/14 00:13:44;;;;;;;15.55;8.75;;;;;;;;;;1728749;82;21567;-67
2022/10/14 00:16:14;;;;;;;15.50;8.80;;;;;;;;;;1725121;82;21033;-68
2022/10/14 00:18:41;;;;;;;14.50;8.60;;;;;;;;;;1726415;83;21501;-68
2022/10/14 00:21:07;;;;;;;15.72;8.65;;;;;;;;;;1714175;83;21572;-68
2022/10/14 00:23:36;;;;;;;17.00;9.53;;;;;;;;;;1691447;85;21803;-68
2022/10/14 00:26:02;;;;;;;15.13;8.90;;;;;;;;;;1690718;84;21563;-67
2022/10/14 00:28:29;;;;;;;16.20;8.73;;;;;;;;;;1691720;85;21057;-68
2022/10/14 00:30:56;;;;;;;15.83;8.40;;;;;;;;;;1691897;85;21116;-67
2022/10/14 00:33:23;;;;;;;15.38;9.48;;;;;;;;;;1689538;84;21073;-67
2022/10/14 00:35:56;;;;;;;14.50;8.95;;;;;;;;;;1688669;85;21078;-68
2022/10/14 00:38:25;;;;;;;14.93;8.73;;;;;;;;;;1688454;85;21017;-67
2022/10/14 00:40:51;;;;;;;19.02;9.78;;;;;;;;;;1691525;85;21021;-67
2022/10/14 00:43:18;;;;;;;16.97;9.58;;;;;;;;;;1690753;85;21060;-68
2022/10/14 00:45:46;;;;;;;15.35;9.18;;;;;;;;;;1691341;85;21080;-68
2022/10/14 00:48:12;;;;;;;16.55;8.80;;;;;;;;;;1690615;83;20993;-68
2022/10/14 00:50:40;;;;;;;15.38;8.90;;;;;;;;;;1691111;83;21080;-68
2022/10/14 00:53:07;;;;;;;16.55;8.93;;;;;;;;;;1690519;83;21056;-68
2022/10/14 00:55:33;;;;;;;12.90;8.28;;;;;;;;;;1690422;83;21200;-68
2022/10/14 00:58:01;;;;;;;19.17;8.55;;;;;;;;;;1690602;83;21034;-68
2022/10/14 01:00:29;;;;;;;14.30;8.50;;;;;;;;;;1692182;83;21081;-68
2022/10/14 01:02:55;;;;;;;16.52;8.65;;;;;;;;;;1688241;83;21525;-68
2022/10/14 01:05:21;;;;;;;14.20;8.80;;;;;;;;;;1689660;83;21230;-68
2022/10/14 01:07:49;;;;;;;14.23;7.90;;;;;;;;;;1690484;83;22747;-68
2022/10/14 01:10:21;;;;;;;13.38;7.20;;;;;;;;;;1690978;83;21604;-68
2022/10/14 01:12:49;;;;;;;11.88;7.33;;;;;;;;;;1689694;83;21490;-68
2022/10/14 01:15:20;;;;;;;13.00;7.45;;;;;;;;;;1691295;83;21057;-68
2022/10/14 01:17:52;;;;;;;10.95;6.37;;;;;;;;;;1687105;83;21564;-68
2022/10/14 01:20:21;;;;;;;12.33;6.53;;;;;;;;;;1687733;83;21053;-67
2022/10/14 01:22:52;;;;;;;15.38;6.55;;;;;;;;;;1710991;82;21536;-66
2022/10/14 01:25:34;;;;;;;14.60;6.95;;;;;;;;;;1711407;82;22039;-67
2022/10/14 01:28:08;;;;;;;10.63;6.22;;;;;;;;;;1715875;82;21049;-67
2022/10/14 01:30:39;;;;;;;9.80;6.17;;;;;;;;;;1708948;82;21058;-67
2022/10/14 01:33:11;;;;;;;10.45;6.17;;;;;;;;;;1712106;82;21033;-67
2022/10/14 01:35:42;;;;;;;11.30;5.87;;;;;;;;;;1710639;83;21013;-68
2022/10/14 01:38:27;;;;;;;10.78;6.25;;;;;;;;;;1714483;82;21596;-67
2022/10/14 01:41:08;;;;;;;8.88;5.83;;;;;;;;;;1711797;82;21547;-68
2022/10/14 01:43:36;;;;;;;10.18;5.60;;;;;;;;;;1712249;82;21032;-68
2022/10/14 01:46:03;;;;;;;13.53;7.10;;;;;;;;;;1713434;82;21035;-67
2022/10/14 01:48:31;;;;;;;14.00;5.67;;;;;;;;;;1701734;82;21498;-68
2022/10/14 01:50:58;;;;;;;12.47;5.83;;;;;;;;;;1697979;83;21096;-67
2022/10/14 01:53:25;;;;;;;11.20;5.67;;;;;;;;;;1711381;82;21099;-68
2022/10/14 01:55:51;;;;;;;10.38;5.67;;;;;;;;;;1712748;82;21104;-67
2022/10/14 01:58:17;;;;;;;8.38;5.03;;;;;;;;;;1711055;82;21059;-68
2022/10/14 02:03:37;;;;;;;10.53;5.65;;;;;;;;;;1733659;79;76700;-68
2022/10/14 02:06:06;;;;;;;11.20;5.40;;;;;;;;;;1738538;82;21054;-69
2022/10/14 02:08:37;;;;;;;11.30;5.83;;;;;;;;;;1734270;83;21073;-70
2022/10/14 02:11:06;;;;;;;8.78;5.60;;;;;;;;;;1755143;81;21501;-69
2022/10/14 02:13:45;;;;;;;8.95;5.33;;;;;;;;;;1678790;85;21056;-69
2022/10/14 02:16:32;;;;;;;10.23;5.72;;;;;;;;;;1674603;85;21587;-69
2022/10/14 02:19:04;;;;;;;9.68;5.60;;;;;;;;;;1730903;81;21033;-69
2022/10/14 02:21:32;;;;;;;10.50;5.62;;;;;;;;;;1741456;82;21006;-69
2022/10/14 02:24:07;;;;;;;8.93;5.72;;;;;;;;;;1737951;82;21538;-69
2022/10/14 02:26:34;;;;;;;10.80;5.45;;;;;;;;;;1735347;81;21033;-68
2022/10/14 02:29:00;;;;;;;9.58;5.78;;;;;;;;;;1715067;82;21056;-69
2022/10/14 02:31:27;;;;;;;8.58;5.58;;;;;;;;;;1727410;82;21088;-69
2022/10/14 02:33:55;;;;;;;10.32;5.83;;;;;;;;;;1740132;82;21602;-69
2022/10/14 02:36:22;;;;;;;11.93;5.55;;;;;;;;;;1741851;81;21048;-69
2022/10/14 02:38:48;;;;;;;9.63;5.20;;;;;;;;;;1754229;81;21000;-69
2022/10/14 02:41:17;;;;;;;9.15;5.85;;;;;;;;;;1759267;81;21035;-71
2022/10/14 02:43:44;;;;;;;10.58;5.42;;;;;;;;;;1685571;85;20985;-70
2022/10/14 02:46:10;;;;;;;8.50;5.47;;;;;;;;;;1745982;82;21003;-69
2022/10/14 02:48:36;;;;;;;10.25;5.05;;;;;;;;;;1738207;81;21044;-70
2022/10/14 02:51:02;;;;;;;9.83;5.58;;;;;;;;;;1739391;82;21056;-70
2022/10/14 02:53:29;;;;;;;11.50;5.20;;;;;;;;;;1641761;86;21630;-70
2022/10/14 02:55:57;;;;;;;8.73;4.97;;;;;;;;;;1676900;85;21016;-69
2022/10/14 02:58:23;;;;;;;9.73;5.83;;;;;;;;;;1673660;85;21004;-70
2022/10/14 03:00:50;;;;;;;9.78;6.10;;;;;;;;;;1678136;85;21080;-69
2022/10/14 03:03:16;;;;;;;13.22;5.83;;;;;;;;;;1696454;83;21612;-69
2022/10/14 03:05:42;;;;;;;8.93;5.45;;;;;;;;;;1677222;84;21645;-69
2022/10/14 03:08:10;;;;;;;10.13;5.60;;;;;;;;;;1719409;82;21095;-69
2022/10/14 03:10:37;;;;;;;7.70;5.35;;;;;;;;;;1720052;82;21080;-69
2022/10/14 03:13:05;;;;;;;9.48;5.67;;;;;;;;;;1719596;83;21035;-69
2022/10/14 03:15:33;;;;;;;9.15;5.70;;;;;;;;;;1711596;82;21131;-71
2022/10/14 03:17:59;;;;;;;10.32;5.45;;;;;;;;;;1715969;82;21056;-70
2022/10/14 03:20:28;;;;;;;10.15;6.03;;;;;;;;;;1738598;82;21550;-68
2022/10/14 03:22:55;;;;;;;7.60;4.85;;;;;;;;;;1746133;82;21041;-68
2022/10/14 03:25:23;;;;;;;9.00;5.65;;;;;;;;;;1726507;82;21538;-68
2022/10/14 03:28:00;;;;;;;10.15;5.65;;;;;;;;;;1719892;82;21059;-68
2022/10/14 03:30:28;;;;;;;11.40;6.33;;;;;;;;;;1739184;82;21089;-68
2022/10/14 03:32:57;;;;;;;10.82;5.97;;;;;;;;;;1738508;82;21553;-69
2022/10/14 03:35:25;;;;;;;8.40;5.85;;;;;;;;;;1722619;81;21614;-69
2022/10/14 03:37:53;;;;;;;10.08;6.15;;;;;;;;;;1719643;82;21579;-68
2022/10/14 03:40:21;;;;;;;10.28;5.37;;;;;;;;;;1722010;82;21083;-68
2022/10/14 03:42:49;;;;;;;9.90;6.25;;;;;;;;;;1746426;82;21022;-69
2022/10/14 03:45:16;;;;;;;10.82;5.45;;;;;;;;;;1746202;82;21085;-69
2022/10/14 03:47:45;;;;;;;8.53;5.15;;;;;;;;;;1732808;82;21091;-70
2022/10/14 03:50:11;;;;;;;9.53;5.40;;;;;;;;;;1661217;86;21095;-69
2022/10/14 03:52:43;;;;;;;9.15;5.53;;;;;;;;;;1693996;84;21130;-69
2022/10/14 03:55:11;;;;;;;10.55;5.97;;;;;;;;;;1745876;82;21097;-69
2022/10/14 03:57:38;;;;;;;13.70;6.50;;;;;;;;;;1717546;82;21598;-69
2022/10/14 04:00:06;;;;;;;9.08;5.53;;;;;;;;;;1715202;83;21105;-69
2022/10/14 04:02:43;;;;;;;9.45;5.47;;;;;;;;;;1713363;82;21097;-70
2022/10/14 04:05:20;;;;;;;7.37;4.90;;;;;;;;;;1711165;83;21090;-70
2022/10/14 04:07:47;;;;;;;9.13;5.15;;;;;;;;;;1714486;82;21111;-70
2022/10/14 04:10:13;;;;;;;12.45;6.40;;;;;;;;;;1716122;82;21096;-70
2022/10/14 04:12:42;;;;;;;9.78;5.37;;;;;;;;;;1714555;84;21038;-70
2022/10/14 04:15:15;;;;;;;9.65;5.55;;;;;;;;;;1713965;82;21596;-70
2022/10/14 04:17:43;;;;;;;9.08;5.10;;;;;;;;;;1713160;82;21059;-70
2022/10/14 04:20:13;;;;;;;10.48;5.65;;;;;;;;;;1726518;82;21112;-70
2022/10/14 04:22:42;;;;;;;9.75;5.55;;;;;;;;;;1714825;83;21058;-69
2022/10/14 04:25:09;;;;;;;10.05;5.58;;;;;;;;;;1717527;82;21169;-69
2022/10/14 04:27:37;;;;;;;9.20;5.50;;;;;;;;;;1730075;82;21076;-70
2022/10/14 04:30:05;;;;;;;10.18;5.37;;;;;;;;;;1717017;83;21069;-70
2022/10/14 04:32:34;;;;;;;10.18;5.97;;;;;;;;;;1688818;83;21077;-69
2022/10/14 04:35:01;;;;;;;18.23;10.50;;;;;;;;;;1725041;82;21053;-69
2022/10/14 04:37:29;;;;;;;19.05;11.40;;;;;;;;;;1733403;82;21047;-69
2022/10/14 04:40:12;;;;;;;10.65;6.55;;;;;;;;;;1729115;82;21010;-68
2022/10/14 04:42:40;;;;;;;12.85;7.67;;;;;;;;;;1724603;82;21010;-70
2022/10/14 04:45:09;;;;;;;10.20;6.17;;;;;;;;;;1685395;84;21089;-71
2022/10/14 04:47:38;;;;;;;14.75;7.58;;;;;;;;;;1661774;86;21065;-69
2022/10/14 04:50:06;;;;;;;10.55;5.90;;;;;;;;;;1653116;85;21483;-69
2022/10/14 04:52:33;;;;;;;10.55;5.97;;;;;;;;;;1672724;85;21512;-72
2022/10/14 04:55:02;;;;;;;11.28;5.72;;;;;;;;;;1715151;82;21026;-70
2022/10/14 04:57:34;;;;;;;14.35;7.17;;;;;;;;;;1726222;82;21064;-72
2022/10/14 05:00:02;;;;;;;13.10;6.72;;;;;;;;;;1716484;83;21593;-69
2022/10/14 05:02:36;;;;;;;12.37;6.90;;;;;;;;;;1710797;82;21057;-69
2022/10/14 05:05:03;;;;;;;11.63;7.40;;;;;;;;;;1712672;82;21066;-69
2022/10/14 05:07:32;;;;;;;14.23;8.33;;;;;;;;;;1718451;82;21042;-69
2022/10/14 05:10:00;;;;;;;12.78;7.30;;;;;;;;;;1724230;82;21061;-69
2022/10/14 05:12:29;;;;;;;13.32;7.72;;;;;;;;;;1718299;82;21027;-72
2022/10/14 05:14:58;;;;;;;11.93;7.10;;;;;;;;;;1716117;83;21046;-71
2022/10/14 05:17:26;;;;;;;12.65;7.53;;;;;;;;;;1714337;84;21081;-71
2022/10/14 05:19:53;;;;;;;12.23;7.37;;;;;;;;;;1718086;82;21032;-71
2022/10/14 05:22:21;;;;;;;14.47;7.75;;;;;;;;;;1711741;82;21035;-71
2022/10/14 05:24:47;;;;;;;14.87;7.12;;;;;;;;;;1726983;82;21079;-71
2022/10/14 05:27:13;;;;;;;11.93;6.55;;;;;;;;;;1725984;82;21527;-71
2022/10/14 05:29:41;;;;;;;12.13;6.83;;;;;;;;;;1718058;82;21041;-71
2022/10/14 05:32:09;;;;;;;13.38;7.40;;;;;;;;;;1713626;82;21550;-70
2022/10/14 05:34:37;;;;;;;13.72;7.92;;;;;;;;;;1719569;83;21559;-68
2022/10/14 05:37:05;;;;;;;13.32;7.90;;;;;;;;;;1719942;82;21052;-69
2022/10/14 05:39:33;;;;;;;13.95;8.43;;;;;;;;;;1728500;82;21055;-69
2022/10/14 05:42:01;;;;;;;12.75;7.95;;;;;;;;;;1726930;82;21066;-69
2022/10/14 05:44:29;;;;;;;16.05;8.45;;;;;;;;;;1719253;83;21452;-69
2022/10/14 05:46:55;;;;;;;15.88;8.65;;;;;;;;;;1719692;83;21036;-69
2022/10/14 05:49:23;;;;;;;17.95;8.70;;;;;;;;;;1720095;82;21540;-70
2022/10/14 05:51:49;;;;;;;14.47;8.30;;;;;;;;;;1736387;82;21053;-70
2022/10/14 05:54:17;;;;;;;17.17;9.08;;;;;;;;;;1719205;82;21052;-70
2022/10/14 05:56:44;;;;;;;13.43;9.25;;;;;;;;;;1717993;83;21554;-70
2022/10/14 05:59:11;;;;;;;18.42;9.85;;;;;;;;;;1720230;82;21068;-70
2022/10/14 06:01:39;;;;;;;19.00;9.83;;;;;;;;;;1717632;82;21030;-69
2022/10/14 06:04:05;;;;;;;14.63;9.70;;;;;;;;;;1711893;82;21661;-68
2022/10/14 06:06:33;;;;;;;16.55;10.20;;;;;;;;;;1713908;82;21008;-68
2022/10/14 06:08:59;;;;;;;17.52;9.83;;;;;;;;;;1716635;82;21047;-69
2022/10/14 06:11:25;;;;;;;18.62;9.55;;;;;;;;;;1736517;82;21521;-69
2022/10/14 06:13:52;;;;;;;20.72;10.25;;;;;;;;;;1719524;82;21038;-68
2022/10/14 06:16:20;;;;;;;20.10;9.98;;;;;;;;;;1714478;84;21536;-68
2022/10/14 06:18:46;;;;;;;18.70;9.90;;;;;;;;;;1715045;82;21089;-69
2022/10/14 06:21:13;;;;;;;19.62;10.58;;;;;;;;;;1715619;83;21030;-68
2022/10/14 06:23:42;;;;;;;18.65;10.08;;;;;;;;;;1708470;83;21053;-68
2022/10/14 06:26:08;;;;;;;19.25;10.82;;;;;;;;;;1685409;83;21203;-67
2022/10/14 06:28:35;;;;;;;22.40;11.20;;;;;;;;;;1713026;83;21105;-68
2022/10/14 06:31:01;;;;;;;22.90;11.40;;;;;;;;;;1702871;83;21042;-68
2022/10/14 06:33:28;;;;;;;19.80;10.88;;;;;;;;;;1706588;83;21570;-68
2022/10/14 06:35:55;;;;;;;22.00;11.85;;;;;;;;;;1687943;83;21063;-69
2022/10/14 06:38:22;;;;;;;24.20;12.78;;;;;;;;;;1660775;85;22368;-69
2022/10/14 06:40:51;;;;;;;19.37;11.30;;;;;;;;;;1661770;85;21083;-69
2022/10/14 06:43:18;;;;;;;20.10;10.75;;;;;;;;;;1662628;85;21048;-68
2022/10/14 06:45:44;;;;;;;20.32;12.07;;;;;;;;;;1678285;85;21110;-68
2022/10/14 06:48:12;;;;;;;23.77;11.57;;;;;;;;;;1658826;86;21101;-68
2022/10/14 06:50:38;;;;;;;23.65;12.03;;;;;;;;;;1633535;86;21034;-69
2022/10/14 06:53:04;;;;;;;16.77;10.13;;;;;;;;;;1708596;82;21087;-68
2022/10/14 06:55:31;;;;;;;16.97;11.40;;;;;;;;;;1711453;82;21066;-68
2022/10/14 06:57:57;;;;;;;22.67;12.73;;;;;;;;;;1654464;86;21528;-76
2022/10/14 07:00:24;;;;;;;21.25;12.73;;;;;;;;;;1653449;85;21097;-72
2022/10/14 07:02:50;;;;;;;20.62;11.70;;;;;;;;;;1659064;85;21135;-72
2022/10/14 07:05:16;;;;;;;22.07;12.65;;;;;;;;;;1656242;85;21150;-73
2022/10/14 07:07:43;;;;;;;23.10;12.50;;;;;;;;;;1622770;88;21077;-73
2022/10/14 07:10:10;;;;;;;22.52;11.43;;;;;;;;;;1671998;84;21178;-74
2022/10/14 07:12:36;;;;;;;21.70;12.50;;;;;;;;;;1648630;86;21551;-72
2022/10/14 07:15:03;;;;;;;21.90;12.18;;;;;;;;;;1654478;86;21017;-71
2022/10/14 07:17:30;;;;;;;21.15;11.55;;;;;;;;;;1651174;87;21029;-76
2022/10/14 07:19:56;;;;;;;21.65;11.57;;;;;;;;;;1653348;85;21095;-74
2022/10/14 07:22:24;;;;;;;23.47;12.45;;;;;;;;;;1661924;86;21038;-75
2022/10/14 07:24:50;;;;;;;25.65;11.93;;;;;;;;;;1656602;85;21535;-76
2022/10/14 07:27:19;;;;;;;20.77;12.00;;;;;;;;;;1649420;87;21053;-76
2022/10/14 07:29:45;;;;;;;20.52;11.68;;;;;;;;;;1649313;85;20996;-77
2022/10/14 07:32:11;;;;;;;22.67;11.68;;;;;;;;;;1675182;85;21040;-78
2022/10/14 07:34:37;;;;;;;18.55;11.78;;;;;;;;;;1726585;82;21099;-77
2022/10/14 07:37:05;;;;;;;21.85;12.18;;;;;;;;;;1707248;82;21586;-77
2022/10/14 07:39:30;;;;;;;18.27;11.33;;;;;;;;;;1704194;83;20983;-75
2022/10/14 07:41:57;;;;;;;21.90;12.37;;;;;;;;;;1703890;82;21101;-75
2022/10/14 07:44:26;;;;;;;21.05;11.10;;;;;;;;;;1621072;86;21097;-76
2022/10/14 07:46:52;;;;;;;21.30;10.70;;;;;;;;;;1687849;84;21053;-75
2022/10/14 07:49:19;;;;;;;16.93;9.60;;;;;;;;;;1668999;84;21011;-75
2022/10/14 07:51:45;;;;;;;22.62;8.98;;;;;;;;;;1640594;85;21038;-77
2022/10/14 07:54:13;;;;;;;19.15;8.95;;;;;;;;;;1648163;86;21094;-75
2022/10/14 07:56:39;;;;;;;16.48;9.03;;;;;;;;;;1682912;84;22209;-77
2022/10/14 07:59:05;;;;;;;14.63;8.58;;;;;;;;;;1661902;85;21035;-76
2022/10/14 08:01:31;;;;;;;17.05;8.75;;;;;;;;;;1664567;84;21522;-76
2022/10/14 08:03:57;;;;;;;17.42;8.58;;;;;;;;;;1663147;85;21019;-75
2022/10/14 08:06:24;;;;;;;18.00;9.80;;;;;;;;;;1678177;85;21071;-80
2022/10/14 08:08:49;;;;;;;19.42;9.63;;;;;;;;;;1648642;85;21033;-78
2022/10/14 08:11:17;;;;;;;18.70;8.40;;;;;;;;;;1653249;86;21044;-74
2022/10/14 08:13:43;;;;;;;14.23;7.53;;;;;;;;;;1649341;87;21115;-75
2022/10/14 08:16:19;;;;;;;15.58;7.85;;;;;;;;;;1649590;86;21099;-73
2022/10/14 08:18:46;;;;;;;16.48;8.78;;;;;;;;;;1645524;87;21062;-75
2022/10/14 08:21:13;;;;;;;15.15;9.55;;;;;;;;;;1666352;86;21096;-76
2022/10/14 08:23:39;;;;;;;14.68;8.10;;;;;;;;;;1656485;85;21091;-77
2022/10/14 08:26:07;;;;;;;12.63;7.28;;;;;;;;;;1659404;85;21103;-77
2022/10/14 08:28:33;;;;;;;15.43;7.00;;;;;;;;;;1660625;86;21087;-76
2022/10/14 08:31:00;;;;;;;12.25;7.67;;;;;;;;;;1652590;87;21078;-77
2022/10/14 08:33:25;;;;;;;10.58;5.95;;;;;;;;;;1670797;85;21553;-72
2022/10/14 08:35:51;;;;;;;12.10;6.95;;;;;;;;;;1660940;85;22183;-72
2022/10/14 08:38:23;;;;;;;19.52;10.63;;;;;;;;;;1672056;85;21033;-74
2022/10/14 08:40:48;;;;;;;12.68;6.58;;;;;;;;;;1660848;85;21079;-74
2022/10/14 08:43:30;;;;;;;14.55;7.45;;;;;;;;;;1649255;85;21549;-73
2022/10/14 08:45:58;;;;;;;13.78;7.22;;;;;;;;;;1665369;84;21012;-74
2022/10/14 08:48:24;;;;;;;14.13;5.90;;;;;;;;;;1623147;87;21082;-74
2022/10/14 08:50:55;;;;;;;10.85;6.00;;;;;;;;;;1656705;86;21068;-73
2022/10/14 08:53:23;;;;;;;14.50;5.75;;;;;;;;;;1663190;85;21073;-74
2022/10/14 08:55:50;;;;;;;11.18;6.47;;;;;;;;;;1677104;85;21110;-71
2022/10/14 08:58:27;;;;;;;10.38;5.60;;;;;;;;;;1660804;85;21071;-75
2022/10/14 09:00:53;;;;;;;12.15;6.22;;;;;;;;;;1659136;85;21081;-72
2022/10/14 09:03:21;;;;;;;14.13;6.35;;;;;;;;;;1658153;85;21592;-73
2022/10/14 09:05:52;;;;;;;11.97;6.37;;;;;;;;;;1662448;85;21072;-73
2022/10/14 09:08:20;;;;;;;11.90;6.03;;;;;;;;;;1670633;85;21040;-74
2022/10/14 09:10:45;;;;;;;7.53;5.30;;;;;;;;;;1667209;85;21042;-73
2022/10/14 09:13:17;;;;;;;10.70;6.20;;;;;;;;;;1674613;84;21069;-70
2022/10/14 09:15:46;;;;;;;12.05;5.62;;;;;;;;;;1662585;85;21589;-70
2022/10/14 09:18:32;;;;;;;9.78;5.40;;;;;;;;;;1666690;84;21562;-70
2022/10/14 09:20:58;;;;;;;10.88;6.30;;;;;;;;;;1666248;84;21082;-70
2022/10/14 09:23:25;;;;;;;11.75;6.45;;;;;;;;;;1733932;82;21093;-73
2022/10/14 09:25:53;;;;;;;11.75;6.17;;;;;;;;;;1690879;82;20957;-72
2022/10/14 09:28:21;;;;;;;12.68;6.90;;;;;;;;;;1741913;82;21514;-72
2022/10/14 09:30:47;;;;;;;12.30;7.20;;;;;;;;;;1746045;82;21168;-72
2022/10/14 09:33:17;;;;;;;10.68;6.35;;;;;;;;;;1745249;82;21577;-73
2022/10/14 09:35:44;;;;;;;9.25;5.62;;;;;;;;;;1679497;84;21006;-74
2022/10/14 09:38:10;;;;;;;9.10;5.40;;;;;;;;;;1731178;81;21212;-73
2022/10/14 09:40:38;;;;;;;13.13;6.17;;;;;;;;;;1690595;84;21028;-72
2022/10/14 09:43:09;;;;;;;13.28;6.25;;;;;;;;;;1663053;86;21066;-74
2022/10/14 09:45:54;;;;;;;8.68;5.58;;;;;;;;;;1675889;84;20989;-74
2022/10/14 09:48:31;;;;;;;9.13;5.50;;;;;;;;;;1680471;84;21016;-75
2022/10/14 09:50:58;;;;;;;10.00;5.90;;;;;;;;;;1674212;84;21043;-73
2022/10/14 09:53:26;;;;;;;13.95;6.05;;;;;;;;;;1682649;84;21047;-74
2022/10/14 09:55:59;;;;;;;11.05;5.33;;;;;;;;;;1671603;86;20968;-75
2022/10/14 09:58:27;;;;;;;10.30;5.80;;;;;;;;;;1731845;82;20994;-75
2022/10/14 10:00:55;;;;;;;9.58;5.90;;;;;;;;;;1713000;84;21069;-75
2022/10/14 10:03:26;;;;;;;11.08;5.70;;;;;;;;;;1698102;83;21029;-75
2022/10/14 10:06:10;;;;;;;12.58;5.80;;;;;;;;;;1670136;83;21057;-78
2022/10/14 10:08:37;;;;;;;11.48;5.50;;;;;;;;;;1728711;82;21270;-75
2022/10/14 10:11:05;;;;;;;10.40;5.90;;;;;;;;;;1718795;83;21023;-76
2022/10/14 10:13:35;;;;;;;10.38;5.37;;;;;;;;;;1721922;82;21215;-66
2022/10/14 10:16:02;;;;;;;13.72;7.60;;;;;;;;;;1720367;83;21064;-64
2022/10/14 10:18:28;;;;;;;8.70;5.72;;;;;;;;;;1726775;82;21094;-64
2022/10/14 10:21:05;;;;;;;14.40;6.20;;;;;;;;;;1687597;83;21072;-64
2022/10/14 10:23:30;;;;;;;7.15;4.87;;;;;;;;;;1722420;82;21042;-65
2022/10/14 10:25:59;;;;;;;9.25;5.17;;;;;;;;;;1715494;82;21003;-64
2022/10/14 10:28:30;;;;;;;7.92;4.75;;;;;;;;;;1718456;82;21589;-65
2022/10/14 10:30:59;;;;;;;8.88;5.05;;;;;;;;;;1721848;82;21699;-65
2022/10/14 10:33:33;;;;;;;12.90;5.50;;;;;;;;;;1722643;83;22312;-65
2022/10/14 10:36:12;;;;;;;8.98;5.22;;;;;;;;;;1719480;83;21058;-64
2022/10/14 10:38:38;;;;;;;10.28;4.78;;;;;;;;;;1719755;82;21050;-66
2022/10/14 10:41:18;;;;;;;10.70;5.65;;;;;;;;;;1717839;83;21085;-67
2022/10/14 10:43:48;;;;;;;10.30;5.35;;;;;;;;;;1724113;82;21026;-68
2022/10/14 10:46:31;;;;;;;8.25;4.95;;;;;;;;;;1714934;82;22097;-64
2022/10/14 10:49:02;;;;;;;9.08;5.25;;;;;;;;;;1717797;82;21109;-62
2022/10/14 10:51:33;;;;;;;8.48;4.00;;;;;;;;;;1712451;82;21050;-63
2022/10/14 10:54:01;;;;;;;8.25;4.60;;;;;;;;;;1707821;83;21101;-62
2022/10/14 10:56:32;;;;;;;13.40;6.40;;;;;;;;;;1716004;82;21562;-62
2022/10/14 10:59:00;;;;;;;10.18;5.28;;;;;;;;;;1715304;82;21051;-63
2022/10/14 11:01:32;;;;;;;8.83;5.00;;;;;;;;;;1712918;82;21086;-64
2022/10/14 11:04:00;;;;;;;10.38;5.15;;;;;;;;;;1720914;82;21017;-64
2022/10/14 11:12:23;;;;;;;8.08;4.90;;;;;;;;;;1711614;82;21061;-63
2022/10/14 11:14:54;;;;;;;10.88;4.97;;;;;;;;;;1710789;82;21121;-62
2022/10/14 11:17:32;;;;;;;15.35;4.53;;;;;;;;;;1720288;82;21125;-62
2022/10/14 11:20:00;;;;;;;13.22;7.33;;;;;;;;;;1718426;82;21074;-63
2022/10/14 11:22:45;;;;;;;19.00;6.97;;;;;;;;;;1718557;82;21074;-63
2022/10/14 11:25:15;;;;;;;8.13;4.95;;;;;;;;;;1726975;82;21589;-63
2022/10/14 11:27:50;;;;;;;11.05;4.65;;;;;;;;;;1714572;82;21630;-65
2022/10/14 11:30:21;;;;;;;15.80;4.75;;;;;;;;;;1724964;82;21070;-64
2022/10/14 11:32:50;;;;;;;;;;;;;;;;;;1728345;82;21533;-64
2022/10/14 11:35:27;;;;;;;10.03;4.90;;;;;;;;;;1725447;82;20158;-66
2022/10/14 11:39:20;;;;;;;7.35;4.62;;;;;;;;;;1817916;79;23661;-64
2022/10/14 11:42:10;;;;;;;9.03;4.70;;;;;;;;;;1786954;80;21016;-63
2022/10/14 11:44:36;;;;;;;10.98;4.58;;;;;;;;;;1787507;78;21032;-63
2022/10/14 11:47:04;;;;;;;14.80;4.50;;;;;;;;;;1792008;79;21032;-63
2022/10/14 11:49:35;;;;;;;7.47;4.00;;;;;;;;;;1791603;80;21020;-63
2022/10/14 11:52:12;;;;;;;8.23;4.40;;;;;;;;;;1788417;78;21007;-64
2022/10/14 11:54:39;;;;;;;8.93;4.87;;;;;;;;;;1778893;80;21509;-65
2022/10/14 11:57:07;;;;;;;11.68;5.05;;;;;;;;;;1790020;78;21071;-63
2022/10/14 11:59:39;;;;;;;10.25;4.55;;;;;;;;;;1770186;78;21047;-63
2022/10/14 12:02:13;;;;;;;9.68;3.92;;;;;;;;;;1726324;81;21632;-64
2022/10/14 12:04:40;;;;;;;10.23;4.35;;;;;;;;;;1692062;82;21449;-64
2022/10/14 12:07:11;;;;;;;9.93;3.95;;;;;;;;;;1712875;83;21048;-63
2022/10/14 12:09:38;;;;;;;6.75;3.80;;;;;;;;;;1704673;82;21552;-64
2022/10/14 12:12:06;;;;;;;5.80;3.27;;;;;;;;;;1674328;84;21065;-63
2022/10/14 12:14:34;;;;;;;6.55;3.98;;;;;;;;;;1706522;84;21103;-63
2022/10/14 12:17:03;;;;;;;8.65;3.85;;;;;;;;;;1706530;83;21013;-63
2022/10/14 12:19:29;;;;;;;6.33;3.83;;;;;;;;;;1684129;84;21127;-63
2022/10/14 12:21:57;;;;;;;13.48;3.75;;;;;;;;;;1692643;83;21520;-63
2022/10/14 12:24:34;;;;;;;7.37;3.60;;;;;;;;;;1687473;83;21045;-64
2022/10/14 12:27:00;;;;;;;6.17;3.47;;;;;;;;;;1687836;83;21315;-64
2022/10/14 12:29:28;;;;;;;5.45;3.17;;;;;;;;;;1685687;83;21088;-64
2022/10/14 12:32:06;;;;;;;11.08;3.50;;;;;;;;;;1686712;83;21099;-63
2022/10/14 12:34:37;;;;;;;6.50;3.60;;;;;;;;;;1689519;83;21500;-64
2022/10/14 12:37:22;;;;;;;8.00;4.45;;;;;;;;;;1688142;83;21083;-63
2022/10/14 12:39:50;;;;;;;17.10;8.88;;;;;;;;;;1698391;83;21064;-62
2022/10/14 12:42:16;;;;;;;7.45;4.70;;;;;;;;;;1685829;83;22194;-70
2022/10/14 12:44:46;;;;;;;5.12;3.40;;;;;;;;;;1700824;81;21064;-71
2022/10/14 12:47:17;;;;;;;6.05;3.50;;;;;;;;;;1675362;83;21091;-71
2022/10/14 12:49:45;;;;;;;6.40;3.58;;;;;;;;;;1670302;83;21033;-71
2022/10/14 12:52:11;;;;;;;7.05;3.42;;;;;;;;;;1705772;82;21016;-72
2022/10/14 12:54:37;;;;;;;9.70;3.67;;;;;;;;;;1646009;85;21076;-72
2022/10/14 12:57:04;;;;;;;8.38;3.83;;;;;;;;;;1686620;83;21089;-73
2022/10/14 12:59:32;;;;;;;8.53;3.92;;;;;;;;;;1702774;83;21072;-72
2022/10/14 13:02:00;;;;;;;7.53;3.50;;;;;;;;;;1699854;82;21583;-71
2022/10/14 13:04:26;;;;;;;9.20;3.22;;;;;;;;;;1704271;82;21106;-72
2022/10/14 13:07:14;;;;;;;6.37;3.33;;;;;;;;;;1702749;83;21060;-74
2022/10/14 13:09:40;;;;;;;10.75;3.35;;;;;;;;;;1675897;84;21052;-73
2022/10/14 13:12:08;;;;;;;7.58;2.98;;;;;;;;;;1651141;85;21130;-73
2022/10/14 13:14:56;;;;;;;5.10;3.20;;;;;;;;;;1677731;85;20996;-73
2022/10/14 13:17:43;;;;;;;6.10;3.35;;;;;;;;;;1686049;83;21535;-74
2022/10/14 13:20:30;;;;;;;5.75;2.85;;;;;;;;;;1697890;83;22194;-72
2022/10/14 13:23:05;;;;;;;7.33;2.90;;;;;;;;;;1700468;83;21067;-77
2022/10/14 13:25:32;;;;;;;6.72;3.52;;;;;;;;;;1650175;83;21224;-71
2022/10/14 13:28:06;;;;;;;7.70;3.58;;;;;;;;;;1703059;84;21082;-71
2022/10/14 13:30:34;;;;;;;8.03;3.92;;;;;;;;;;1652971;83;21072;-72
2022/10/14 13:33:05;;;;;;;7.90;3.55;;;;;;;;;;1701440;83;21072;-71
2022/10/14 13:35:33;;;;;;;10.95;3.47;;;;;;;;;;1695153;83;21091;-72
2022/10/14 13:38:03;;;;;;;6.47;3.22;;;;;;;;;;1683384;83;21628;-72
2022/10/14 13:40:35;;;;;;;12.65;3.83;;;;;;;;;;1726707;81;21040;-71
2022/10/14 13:43:07;;;;;;;6.28;3.27;;;;;;;;;;1731000;81;21830;-72
2022/10/14 13:45:34;;;;;;;7.62;3.27;;;;;;;;;;1728954;81;21005;-72
2022/10/14 13:48:00;;;;;;;9.98;3.25;;;;;;;;;;1732700;81;21028;-72
2022/10/14 13:50:29;;;;;;;5.85;2.80;;;;;;;;;;1727420;81;21516;-73
2022/10/14 13:52:57;;;;;;;6.53;3.27;;;;;;;;;;1725205;81;21028;-72
2022/10/14 13:55:24;;;;;;;6.58;3.05;;;;;;;;;;1714437;81;21044;-72
2022/10/14 13:57:59;;;;;;;4.85;3.22;;;;;;;;;;1721894;81;21033;-73
2022/10/14 14:00:29;;;;;;;11.03;3.47;;;;;;;;;;1733375;81;21599;-74
2022/10/14 14:02:55;;;;;;;7.60;2.80;;;;;;;;;;1736852;82;21580;-75
2022/10/14 14:05:24;;;;;;;7.22;2.80;;;;;;;;;;1731622;81;21055;-74
2022/10/14 14:07:50;;;;;;;5.50;2.47;;;;;;;;;;1728034;81;21088;-75
2022/10/14 14:10:19;;;;;;;10.58;3.30;;;;;;;;;;1731453;81;20978;-73
2022/10/14 14:12:46;;;;;;;6.75;3.33;;;;;;;;;;1723137;82;21075;-73
2022/10/14 14:15:18;;;;;;;5.97;2.75;;;;;;;;;;1726177;81;21052;-72
2022/10/14 14:17:45;;;;;;;12.05;6.50;;;;;;;;;;1720401;82;21096;-74
2022/10/14 14:20:14;;;;;;;31.90;21.93;;;;;;;;;;1732009;81;21033;-73
2022/10/14 14:22:42;;;;;;;42.27;25.02;;;;;;;;;;1726652;82;20994;-73
2022/10/14 14:25:09;;;;;;;11.05;4.40;;;;;;;;;;1710235;82;20981;-72
2022/10/14 14:27:37;;;;;;;9.48;3.65;;;;;;;;;;1662953;85;21049;-71
2022/10/14 14:30:07;;;;;;;9.45;3.62;;;;;;;;;;1728752;81;22232;-72
2022/10/14 14:32:32;;;;;;;8.75;3.60;;;;;;;;;;1696838;81;21060;-72
2022/10/14 14:34:58;;;;;;;9.60;4.17;;;;;;;;;;1720660;81;21482;-73
2022/10/14 14:37:25;;;;;;;14.55;3.85;;;;;;;;;;1726315;82;21111;-76
2022/10/14 14:39:55;;;;;;;9.00;3.77;;;;;;;;;;1746683;81;21012;-74
2022/10/14 14:42:22;;;;;;;8.43;3.58;;;;;;;;;;1752917;80;21588;-72
2022/10/14 14:44:48;;;;;;;12.10;3.37;;;;;;;;;;1742173;81;20993;-72
2022/10/14 14:47:16;;;;;;;12.03;3.30;;;;;;;;;;1754416;80;21005;-72
2022/10/14 14:49:44;;;;;;;11.38;3.72;;;;;;;;;;1754071;80;21081;-70
2022/10/14 14:52:11;;;;;;;6.30;3.05;;;;;;;;;;1742581;81;21031;-72
2022/10/14 14:54:39;;;;;;;8.20;3.30;;;;;;;;;;1745932;81;21546;-74